createdAt,value
2019-03-18T00:00:04.777Z,11.5
2019-03-18T00:15:04.606Z,11.5
2019-03-18T00:30:04.627Z,11.4
2019-03-18T00:45:14.013Z,11.4
2019-03-18T01:00:05.040Z,11.4
2019-03-18T01:15:04.981Z,11.4
2019-03-18T01:30:04.676Z,11.4
2019-03-18T01:45:04.631Z,11.3
2019-03-18T02:00:04.038Z,11.3
2019-03-18T02:15:04.114Z,11.2
2019-03-18T02:30:04.132Z,10.7
2019-03-18T02:45:04.088Z,10.5
2019-03-18T03:00:04.947Z,10.8
2019-03-18T03:15:04.371Z,10.8
2019-03-18T03:30:05.138Z,10.9
2019-03-18T03:45:04.347Z,10.9
2019-03-18T04:00:04.174Z,10.8
2019-03-18T04:15:04.616Z,10.7
2019-03-18T04:30:04.657Z,10.7
2019-03-18T04:45:04.436Z,10.6
2019-03-18T05:00:04.245Z,10.6
2019-03-18T05:15:04.638Z,10.3
2019-03-18T05:30:04.374Z,10.3
2019-03-18T05:45:04.765Z,10.2
2019-03-18T06:00:04.542Z,10.4
2019-03-18T06:15:04.928Z,10.3
2019-03-18T06:30:04.533Z,10.3
2019-03-18T06:45:04.955Z,10.2
2019-03-18T07:00:06.860Z,10.2
2019-03-18T07:15:04.466Z,10.1
2019-03-18T07:30:04.595Z,10.2
2019-03-18T07:45:04.441Z,10.3
2019-03-18T08:00:04.252Z,10.8
2019-03-18T08:15:04.972Z,11.2
2019-03-18T08:30:04.568Z,12.1
2019-03-18T08:45:04.386Z,12.9
2019-03-18T09:00:04.637Z,14.3
2019-03-18T09:15:04.473Z,12.9
2019-03-18T09:30:04.501Z,12.4
2019-03-18T09:45:04.930Z,12.3
2019-03-18T10:00:04.216Z,11.9
2019-03-18T10:15:04.989Z,12
2019-03-18T10:30:04.979Z,12.1
2019-03-18T10:45:04.143Z,11.8
2019-03-18T11:00:04.992Z,11.9
2019-03-18T11:15:04.274Z,11.9
2019-03-18T11:30:05.906Z,11.9
2019-03-18T11:45:04.521Z,11.8
2019-03-18T12:00:04.982Z,11.9
2019-03-18T12:15:04.262Z,12.1
2019-03-18T12:30:04.350Z,12.1
2019-03-18T12:45:04.136Z,12.1
2019-03-18T13:00:04.394Z,12.3
2019-03-18T13:15:04.897Z,12.1
2019-03-18T13:45:05.005Z,12.2
2019-03-18T14:00:04.393Z,12.1
2019-03-18T14:15:04.683Z,12.3
2019-03-18T14:30:04.161Z,12.2
2019-03-18T14:45:04.929Z,12.2
2019-03-18T15:00:04.249Z,12.3
2019-03-18T15:15:04.592Z,12
2019-03-18T15:30:04.604Z,12
2019-03-18T15:45:04.964Z,12.1
2019-03-18T16:00:04.696Z,12
2019-03-18T16:15:04.980Z,12
2019-03-18T16:30:04.475Z,11.8
2019-03-18T16:45:04.262Z,11.7
2019-03-18T17:00:04.086Z,11.4
2019-03-18T17:15:04.868Z,11.6
2019-03-18T17:30:04.885Z,11.5
2019-03-18T17:45:04.537Z,11.4
2019-03-18T18:00:04.524Z,11.4
2019-03-18T18:15:04.771Z,11.3
2019-03-18T18:45:05.017Z,11.2
2019-03-18T19:00:04.768Z,11
2019-03-18T19:15:04.120Z,11
2019-03-18T19:30:04.106Z,10.9
2019-03-18T19:45:04.894Z,10.8
2019-03-18T20:00:05.642Z,10.8
2019-03-18T20:15:04.930Z,10.8
2019-03-18T20:30:04.575Z,10.8
2019-03-18T20:45:04.379Z,10.8
2019-03-18T21:00:04.922Z,10.7
2019-03-18T21:15:04.690Z,10.6
2019-03-18T21:30:04.957Z,10.6
2019-03-18T21:45:04.304Z,10.6
2019-03-18T22:00:04.057Z,10.5
2019-03-18T22:15:04.358Z,10.4
2019-03-18T22:30:04.344Z,10.4
2019-03-18T22:45:04.769Z,10.3
2019-03-18T23:00:04.540Z,10.3
2019-03-18T23:15:04.890Z,10.2
2019-03-18T23:30:04.519Z,10.1
2019-03-18T23:45:04.396Z,10
